Time,TemperatureF,DewpointF,PressureIn,WindDirection,WindDirectionDegrees,WindSpeedMPH,WindSpeedGustMPH,Humidity,HourlyPrecipIn,Conditions,Clouds,dailyrainin,SolarRadiationWatts/m^2,SoftwareType,DateUTC
2013-03-07 00:01:00,41.1,37.0,30.00,NNW,327,0.0,-999.0,84,-99.99,,,0.05,0,weatherlink.com 1.10,2013-03-07 08:01:00,
2013-03-07 00:16:00,40.7,37.0,30.00,NNW,331,7.0,-999.0,85,-99.99,,,0.00,0,weatherlink.com 1.10,2013-03-07 08:16:00,
2013-03-07 00:31:00,40.0,36.0,30.00,NNW,333,4.0,-999.0,85,-99.99,,,0.00,0,weatherlink.com 1.10,2013-03-07 08:31:00,
2013-03-07 00:46:00,39.7,36.0,30.00,NNW,333,3.0,-999.0,86,-99.99,,,0.00,0,weatherlink.com 1.10,2013-03-07 08:46:00,
2013-03-07 01:02:00,39.4,36.0,29.99,NNW,333,4.0,-999.0,86,-99.99,,,0.00,0,weatherlink.com 1.10,2013-03-07 09:02:00,
2013-03-07 01:17:00,39.1,35.0,29.99,NNW,333,4.0,-999.0,86,-99.99,,,0.00,0,weatherlink.com 1.10,2013-03-07 09:17:00,
2013-03-07 01:32:00,39.0,36.0,29.99,NNW,333,3.0,-999.0,87,-99.99,,,0.00,0,weatherlink.com 1.10,2013-03-07 09:32:00,
2013-03-07 01:47:00,39.0,36.0,29.99,NNW,333,4.0,-999.0,87,-99.99,,,0.00,0,weatherlink.com 1.10,2013-03-07 09:47:00,
2013-03-07 02:02:00,39.0,36.0,29.98,NNW,333,1.0,-999.0,87,-99.99,,,0.00,0,weatherlink.com 1.10,2013-03-07 10:02:00,
2013-03-07 02:17:00,38.9,35.0,29.99,NW,308,1.0,-999.0,87,-99.99,,,0.00,0,weatherlink.com 1.10,2013-03-07 10:17:00,
2013-03-07 02:32:00,38.9,35.0,29.98,NW,309,0.0,-999.0,87,-99.99,,,0.00,0,weatherlink.com 1.10,2013-03-07 10:32:00,
2013-03-07 02:47:00,38.7,35.0,29.98,NW,312,0.0,-999.0,87,-99.99,,,0.00,0,weatherlink.com 1.10,2013-03-07 10:47:00,
2013-03-07 03:02:00,38.8,35.0,29.98,NW,312,0.0,-999.0,87,-99.99,,,0.00,0,weatherlink.com 1.10,2013-03-07 11:02:00,
2013-03-07 03:17:00,38.7,35.0,29.98,NW,312,2.0,-999.0,87,-99.99,,,0.00,0,weatherlink.com 1.10,2013-03-07 11:17:00,
2013-03-07 03:32:00,38.6,35.0,29.98,NW,312,0.0,-999.0,87,-99.99,,,0.00,0,weatherlink.com 1.10,2013-03-07 11:32:00,
2013-03-07 04:02:00,38.8,35.0,29.97,NW,313,0.0,-999.0,87,-99.99,,,0.00,0,weatherlink.com 1.10,2013-03-07 12:02:00,
2013-03-07 04:17:00,38.6,35.0,29.97,NW,313,0.0,-999.0,87,-99.99,,,0.00,0,weatherlink.com 1.10,2013-03-07 12:17:00,
2013-03-07 04:32:00,38.4,35.0,29.98,NW,313,1.0,-999.0,87,-99.99,,,0.00,0,weatherlink.com 1.10,2013-03-07 12:32:00,
2013-03-07 04:47:00,38.1,35.0,29.98,NW,313,0.0,-999.0,87,-99.99,,,0.00,0,weatherlink.com 1.10,2013-03-07 12:47:00,
2013-03-07 05:02:00,38.0,35.0,29.98,NW,313,0.0,-999.0,87,-99.99,,,0.00,0,weatherlink.com 1.10,2013-03-07 13:02:00,
2013-03-07 05:17:00,38.1,35.0,29.98,NW,313,0.0,-999.0,87,-99.99,,,0.00,0,weatherlink.com 1.10,2013-03-07 13:17:00,
2013-03-07 05:32:00,38.1,35.0,29.98,NW,313,0.0,-999.0,87,-99.99,,,0.00,0,weatherlink.com 1.10,2013-03-07 13:32:00,
2013-03-07 05:47:00,38.2,35.0,29.97,NW,313,0.0,-999.0,87,-99.99,,,0.00,0,weatherlink.com 1.10,2013-03-07 13:47:00,
2013-03-07 06:02:00,38.0,35.0,29.98,NW,313,0.0,-999.0,87,-99.99,,,0.00,0,weatherlink.com 1.10,2013-03-07 14:02:00,
2013-03-07 06:17:00,37.8,34.0,29.98,NW,313,0.0,-999.0,87,-99.99,,,0.00,0,weatherlink.com 1.10,2013-03-07 14:17:00,
2013-03-07 06:32:00,37.5,34.0,29.98,NW,313,3.0,-999.0,87,-99.99,,,0.00,9,weatherlink.com 1.10,2013-03-07 14:32:00,
2013-03-07 06:47:00,37.5,34.0,29.98,NW,307,0.0,-999.0,87,-99.99,,,0.00,21,weatherlink.com 1.10,2013-03-07 14:47:00,
2013-03-07 07:02:00,37.9,34.0,29.98,NW,307,0.0,-999.0,87,-99.99,,,0.00,69,weatherlink.com 1.10,2013-03-07 15:02:00,
2013-03-07 07:17:00,38.2,35.0,29.98,NW,307,3.0,-999.0,87,-99.99,,,0.00,49,weatherlink.com 1.10,2013-03-07 15:17:00,
2013-03-07 07:32:00,38.1,35.0,29.98,NW,307,0.0,-999.0,87,-99.99,,,0.00,65,weatherlink.com 1.10,2013-03-07 15:32:00,
2013-03-07 07:47:00,38.5,35.0,29.98,NW,307,0.0,-999.0,87,-99.99,,,0.00,123,weatherlink.com 1.10,2013-03-07 15:47:00,
2013-03-07 08:02:00,38.9,35.0,29.98,NW,307,0.0,-999.0,87,-99.99,,,0.00,199,weatherlink.com 1.10,2013-03-07 16:02:00,
2013-03-07 08:17:00,39.5,36.0,29.98,NW,307,0.0,-999.0,87,-99.99,,,0.00,199,weatherlink.com 1.10,2013-03-07 16:17:00,
2013-03-07 08:32:00,39.8,36.0,29.98,NW,307,3.0,-999.0,86,-99.99,,,0.00,137,weatherlink.com 1.10,2013-03-07 16:32:00,
2013-03-07 08:47:00,40.4,37.0,29.98,NW,307,0.0,-999.0,86,-99.99,,,0.00,287,weatherlink.com 1.10,2013-03-07 16:47:00,
2013-03-07 09:02:00,41.6,37.0,29.97,NW,307,1.0,-999.0,85,-99.99,,,0.00,506,weatherlink.com 1.10,2013-03-07 17:02:00,
2013-03-07 09:17:00,42.6,38.0,29.97,NW,307,0.0,-999.0,83,-99.99,,,0.00,454,weatherlink.com 1.10,2013-03-07 17:17:00,
2013-03-07 09:32:00,43.8,38.0,29.97,NW,307,1.0,-999.0,79,-99.99,,,0.00,656,weatherlink.com 1.10,2013-03-07 17:32:00,
2013-03-07 09:47:00,45.1,37.0,29.96,NW,307,0.0,-999.0,74,-99.99,,,0.00,589,weatherlink.com 1.10,2013-03-07 17:47:00,
2013-03-07 10:02:00,46.6,37.0,29.97,NW,307,0.0,-999.0,69,-99.99,,,0.00,360,weatherlink.com 1.10,2013-03-07 18:02:00,
2013-03-07 10:18:00,47.1,36.0,29.96,NW,308,2.0,-999.0,65,-99.99,,,0.00,445,weatherlink.com 1.10,2013-03-07 18:18:00,
2013-03-07 10:48:00,47.1,37.0,29.96,NNW,327,1.0,-999.0,67,-99.99,,,0.00,489,weatherlink.com 1.10,2013-03-07 18:48:00,
2013-03-07 11:03:00,47.8,37.0,29.96,NNW,346,0.0,-999.0,66,-99.99,,,0.00,517,weatherlink.com 1.10,2013-03-07 19:03:00,
2013-03-07 11:18:00,48.8,37.0,29.96,North,11,3.0,-999.0,64,-99.99,,,0.00,517,weatherlink.com 1.10,2013-03-07 19:18:00,
2013-03-07 11:33:00,49.7,37.0,29.96,NNW,329,3.0,-999.0,63,-99.99,,,0.00,468,weatherlink.com 1.10,2013-03-07 19:33:00,
2013-03-07 11:48:00,48.4,36.0,29.95,NNW,330,4.0,-999.0,63,-99.99,,,0.00,613,weatherlink.com 1.10,2013-03-07 19:48:00,
2013-03-07 12:03:00,48.6,36.0,29.94,NNW,335,4.0,-999.0,63,-99.99,,,0.00,492,weatherlink.com 1.10,2013-03-07 20:03:00,
2013-03-07 12:18:00,48.6,36.0,29.93,NNW,332,5.0,-999.0,63,-99.99,,,0.00,469,weatherlink.com 1.10,2013-03-07 20:18:00,
2013-03-07 12:33:00,49.7,36.0,29.92,NNE,13,0.0,-999.0,60,-99.99,,,0.00,480,weatherlink.com 1.10,2013-03-07 20:33:00,
2013-03-07 12:48:00,50.1,35.0,29.92,NNW,337,6.0,-999.0,57,-99.99,,,0.00,399,weatherlink.com 1.10,2013-03-07 20:48:00,
2013-03-07 13:03:00,50.4,35.0,29.91,NNW,334,0.0,-999.0,57,-99.99,,,0.00,459,weatherlink.com 1.10,2013-03-07 21:03:00,
2013-03-07 13:33:00,52.3,34.0,29.89,ENE,78,0.0,-999.0,51,-99.99,,,0.00,476,weatherlink.com 1.10,2013-03-07 21:33:00,
2013-03-07 13:48:00,51.9,36.0,29.89,NNW,333,6.0,-999.0,55,-99.99,,,0.00,316,weatherlink.com 1.10,2013-03-07 21:48:00,
2013-03-07 14:03:00,50.0,36.0,29.89,NNW,338,6.0,-999.0,59,-99.99,,,0.00,207,weatherlink.com 1.10,2013-03-07 22:03:00,
2013-03-07 14:18:00,47.7,36.0,29.90,NW,326,10.0,-999.0,64,-99.99,,,0.00,239,weatherlink.com 1.10,2013-03-07 22:18:00,
2013-03-07 14:33:00,47.7,36.0,29.89,NNW,339,11.0,-999.0,65,-99.99,,,0.00,265,weatherlink.com 1.10,2013-03-07 22:33:00,
2013-03-07 14:48:00,47.8,37.0,29.89,NNW,338,4.0,-999.0,66,-99.99,,,0.00,306,weatherlink.com 1.10,2013-03-07 22:48:00,
2013-03-07 15:03:00,47.3,37.0,29.89,NNW,335,4.0,-999.0,67,-99.99,,,0.00,207,weatherlink.com 1.10,2013-03-07 23:03:00,
2013-03-07 15:18:00,47.1,37.0,29.89,NNW,336,4.0,-999.0,68,-99.99,,,0.00,197,weatherlink.com 1.10,2013-03-07 23:18:00,
2013-03-07 15:33:00,47.0,37.0,29.88,NNW,338,2.0,-999.0,68,-99.99,,,0.00,246,weatherlink.com 1.10,2013-03-07 23:33:00,
2013-03-07 15:48:00,48.0,37.0,29.88,NNW,339,0.0,-999.0,66,-99.99,,,0.00,264,weatherlink.com 1.10,2013-03-07 23:48:00,
2013-03-07 16:03:00,48.9,37.0,29.87,NNE,23,0.0,-999.0,63,-99.99,,,0.00,306,weatherlink.com 1.10,2013-03-08 00:03:00,
2013-03-07 16:18:00,48.9,37.0,29.87,NNW,339,2.0,-999.0,63,-99.99,,,0.00,167,weatherlink.com 1.10,2013-03-08 00:18:00,
2013-03-07 16:33:00,48.0,37.0,29.88,NNW,336,0.0,-999.0,66,-99.99,,,0.00,202,weatherlink.com 1.10,2013-03-08 00:33:00,
2013-03-07 16:48:00,47.1,37.0,29.87,NNW,334,2.0,-999.0,68,-99.99,,,0.00,121,weatherlink.com 1.10,2013-03-08 00:48:00,
2013-03-07 17:03:00,47.1,37.0,29.87,NNW,334,0.0,-999.0,67,-99.99,,,0.00,65,weatherlink.com 1.10,2013-03-08 01:03:00,
2013-03-07 17:18:00,46.4,31.0,29.87,NW,319,0.0,-999.0,56,-99.99,,,0.00,35,weatherlink.com 1.10,2013-03-08 01:18:00,
2013-03-07 17:33:00,45.5,29.0,29.87,NW,309,4.0,-999.0,52,-99.99,,,0.00,23,weatherlink.com 1.10,2013-03-08 01:33:00,
2013-03-07 17:48:00,45.0,28.0,29.88,West,262,2.0,-999.0,51,-99.99,,,0.00,0,weatherlink.com 1.10,2013-03-08 01:48:00,
2013-03-07 18:03:00,44.4,28.0,29.88,West,267,2.0,-999.0,53,-99.99,,,0.00,0,weatherlink.com 1.10,2013-03-08 02:03:00,
2013-03-07 18:18:00,43.7,27.0,29.88,West,266,2.0,-999.0,52,-99.99,,,0.00,0,weatherlink.com 1.10,2013-03-08 02:18:00,
2013-03-07 18:33:00,43.7,31.0,29.88,West,266,1.0,-999.0,61,-99.99,,,0.00,0,weatherlink.com 1.10,2013-03-08 02:33:00,
2013-03-07 18:48:00,43.5,32.0,29.88,West,264,0.0,-999.0,65,-99.99,,,0.00,0,weatherlink.com 1.10,2013-03-08 02:48:00,
2013-03-07 19:03:00,43.2,32.0,29.88,West,264,0.0,-999.0,65,-99.99,,,0.00,0,weatherlink.com 1.10,2013-03-08 03:03:00,
2013-03-07 19:33:00,42.5,31.0,29.88,West,264,0.0,-999.0,64,-99.99,,,0.00,0,weatherlink.com 1.10,2013-03-08 03:33:00,
2013-03-07 19:48:00,41.7,30.0,29.88,West,264,0.0,-999.0,64,-99.99,,,0.00,0,weatherlink.com 1.10,2013-03-08 03:48:00,
2013-03-07 20:03:00,41.0,29.0,29.88,West,264,0.0,-999.0,63,-99.99,,,0.00,0,weatherlink.com 1.10,2013-03-08 04:03:00,
2013-03-07 20:18:00,40.8,29.0,29.88,West,264,0.0,-999.0,63,-99.99,,,0.00,0,weatherlink.com 1.10,2013-03-08 04:18:00,
2013-03-07 20:33:00,40.6,29.0,29.87,West,264,0.0,-999.0,63,-99.99,,,0.00,0,weatherlink.com 1.10,2013-03-08 04:33:00,
2013-03-07 20:48:00,40.6,29.0,29.87,West,264,0.0,-999.0,63,-99.99,,,0.00,0,weatherlink.com 1.10,2013-03-08 04:48:00,
2013-03-07 21:03:00,40.6,29.0,29.87,West,264,0.0,-999.0,63,-99.99,,,0.00,0,weatherlink.com 1.10,2013-03-08 05:03:00,
2013-03-07 21:18:00,40.6,29.0,29.87,West,264,0.0,-999.0,63,-99.99,,,0.00,0,weatherlink.com 1.10,2013-03-08 05:18:00,
2013-03-07 21:33:00,40.6,29.0,29.86,West,264,0.0,-999.0,64,-99.99,,,0.00,0,weatherlink.com 1.10,2013-03-08 05:33:00,
2013-03-07 21:48:00,40.6,29.0,29.86,West,264,0.0,-999.0,64,-99.99,,,0.00,0,weatherlink.com 1.10,2013-03-08 05:48:00,
2013-03-07 22:03:00,40.3,29.0,29.86,West,264,0.0,-999.0,64,-99.99,,,0.00,0,weatherlink.com 1.10,2013-03-08 06:03:00,
2013-03-07 22:34:00,40.0,29.0,29.85,West,264,0.0,-999.0,66,-99.99,,,0.00,0,weatherlink.com 1.10,2013-03-08 06:34:00,
2013-03-07 22:49:00,39.8,30.0,29.84,West,264,0.0,-999.0,68,-99.99,,,0.00,0,weatherlink.com 1.10,2013-03-08 06:49:00,
2013-03-07 23:19:00,39.5,30.0,29.83,West,264,1.0,-999.0,69,-99.99,,,0.00,0,weatherlink.com 1.10,2013-03-08 07:19:00,
2013-03-07 23:34:00,39.4,30.0,29.83,West,264,0.0,-999.0,70,-99.99,,,0.00,0,weatherlink.com 1.10,2013-03-08 07:34:00,
2013-03-07 23:49:00,39.4,30.0,29.82,West,264,0.0,-999.0,70,-99.99,,,0.00,0,weatherlink.com 1.10,2013-03-08 07:49:00,